sensor_id;sensor_type;location;lat;lon;timestamp;temperature;humidity
48806;DHT22;34625;47.176;27.548;2023-07-20T00:02:16;29.30;54.10
48806;DHT22;34625;47.176;27.548;2023-07-20T00:04:42;29.30;54.10
48806;DHT22;34625;47.176;27.548;2023-07-20T00:07:08;29.40;54.00
48806;DHT22;34625;47.176;27.548;2023-07-20T00:09:34;29.30;54.00
48806;DHT22;34625;47.176;27.548;2023-07-20T00:12:00;29.30;54.00
48806;DHT22;34625;47.176;27.548;2023-07-20T00:14:26;29.30;54.10
48806;DHT22;34625;47.176;27.548;2023-07-20T00:16:55;29.40;54.10
48806;DHT22;34625;47.176;27.548;2023-07-20T00:19:25;29.20;54.10
48806;DHT22;34625;47.176;27.548;2023-07-20T00:21:52;29.40;54.00
48806;DHT22;34625;47.176;27.548;2023-07-20T00:24:18;29.20;54.00
48806;DHT22;34625;47.176;27.548;2023-07-20T00:26:44;29.20;54.10
48806;DHT22;34625;47.176;27.548;2023-07-20T00:29:12;29.10;54.10
48806;DHT22;34625;47.176;27.548;2023-07-20T00:31:40;29.30;54.00
48806;DHT22;34625;47.176;27.548;2023-07-20T00:34:06;29.30;54.10
48806;DHT22;34625;47.176;27.548;2023-07-20T00:36:33;29.30;54.10
48806;DHT22;34625;47.176;27.548;2023-07-20T00:39:02;29.30;54.10
48806;DHT22;34625;47.176;27.548;2023-07-20T00:41:28;29.20;54.10
48806;DHT22;34625;47.176;27.548;2023-07-20T00:43:56;29.20;54.10
48806;DHT22;34625;47.176;27.548;2023-07-20T00:46:25;29.30;54.10
48806;DHT22;34625;47.176;27.548;2023-07-20T00:48:51;29.30;54.10
48806;DHT22;34625;47.176;27.548;2023-07-20T00:51:19;29.20;54.00
48806;DHT22;34625;47.176;27.548;2023-07-20T00:53:45;29.20;54.10
48806;DHT22;34625;47.176;27.548;2023-07-20T00:56:12;29.30;54.20
48806;DHT22;34625;47.176;27.548;2023-07-20T00:58:38;29.30;54.10
48806;DHT22;34625;47.176;27.548;2023-07-20T01:01:04;29.30;54.10
48806;DHT22;34625;47.176;27.548;2023-07-20T01:03:30;29.30;54.10
48806;DHT22;34625;47.176;27.548;2023-07-20T01:09:05;29.30;54.00
48806;DHT22;34625;47.176;27.548;2023-07-20T01:11:37;29.20;54.10
48806;DHT22;34625;47.176;27.548;2023-07-20T01:14:05;29.30;54.10
48806;DHT22;34625;47.176;27.548;2023-07-20T01:16:31;29.20;54.10
48806;DHT22;34625;47.176;27.548;2023-07-20T01:18:58;29.30;54.10
48806;DHT22;34625;47.176;27.548;2023-07-20T01:32:42;29.10;54.40
48806;DHT22;34625;47.176;27.548;2023-07-20T01:35:10;29.00;54.40
48806;DHT22;34625;47.176;27.548;2023-07-20T01:37:44;29.20;54.50
48806;DHT22;34625;47.176;27.548;2023-07-20T01:40:14;29.00;54.50
48806;DHT22;34625;47.176;27.548;2023-07-20T01:42:45;28.90;54.00
48806;DHT22;34625;47.176;27.548;2023-07-20T01:45:11;29.00;54.60
48806;DHT22;34625;47.176;27.548;2023-07-20T01:47:37;29.00;54.60
48806;DHT22;34625;47.176;27.548;2023-07-20T01:50:04;28.90;54.10
48806;DHT22;34625;47.176;27.548;2023-07-20T01:52:30;29.00;54.70
48806;DHT22;34625;47.176;27.548;2023-07-20T01:54:56;29.00;54.70
48806;DHT22;34625;47.176;27.548;2023-07-20T01:57:23;29.00;54.80
48806;DHT22;34625;47.176;27.548;2023-07-20T01:59:49;29.00;54.80
48806;DHT22;34625;47.176;27.548;2023-07-20T02:02:15;28.90;54.20
48806;DHT22;34625;47.176;27.548;2023-07-20T02:04:41;29.10;54.80
48806;DHT22;34625;47.176;27.548;2023-07-20T02:07:07;29.10;54.80
48806;DHT22;34625;47.176;27.548;2023-07-20T02:09:33;29.10;54.70
48806;DHT22;34625;47.176;27.548;2023-07-20T02:11:59;29.00;54.70
48806;DHT22;34625;47.176;27.548;2023-07-20T02:14:25;29.00;54.70
48806;DHT22;34625;47.176;27.548;2023-07-20T02:16:51;29.10;54.70
48806;DHT22;34625;47.176;27.548;2023-07-20T02:19:20;29.10;54.70
48806;DHT22;34625;47.176;27.548;2023-07-20T02:21:46;29.10;54.70
48806;DHT22;34625;47.176;27.548;2023-07-20T02:24:13;29.20;54.70
48806;DHT22;34625;47.176;27.548;2023-07-20T02:26:39;29.20;54.70
48806;DHT22;34625;47.176;27.548;2023-07-20T02:29:05;29.20;54.60
48806;DHT22;34625;47.176;27.548;2023-07-20T02:31:31;29.10;54.60
48806;DHT22;34625;47.176;27.548;2023-07-20T02:33:57;29.10;54.60
48806;DHT22;34625;47.176;27.548;2023-07-20T02:36:23;29.30;54.60
48806;DHT22;34625;47.176;27.548;2023-07-20T02:38:50;29.30;54.60
48806;DHT22;34625;47.176;27.548;2023-07-20T02:41:16;29.20;54.50
48806;DHT22;34625;47.176;27.548;2023-07-20T02:43:42;29.30;54.60
48806;DHT22;34625;47.176;27.548;2023-07-20T02:46:08;29.30;54.50
48806;DHT22;34625;47.176;27.548;2023-07-20T02:48:34;29.30;54.50
48806;DHT22;34625;47.176;27.548;2023-07-20T02:51:00;29.40;54.50
48806;DHT22;34625;47.176;27.548;2023-07-20T02:53:26;29.40;54.50
48806;DHT22;34625;47.176;27.548;2023-07-20T02:55:52;29.30;54.50
48806;DHT22;34625;47.176;27.548;2023-07-20T02:58:19;29.30;54.40
48806;DHT22;34625;47.176;27.548;2023-07-20T03:00:45;29.30;54.40
48806;DHT22;34625;47.176;27.548;2023-07-20T03:03:11;29.40;54.40
48806;DHT22;34625;47.176;27.548;2023-07-20T03:05:40;29.30;54.40
48806;DHT22;34625;47.176;27.548;2023-07-20T03:08:06;29.40;54.40
48806;DHT22;34625;47.176;27.548;2023-07-20T03:10:32;29.40;54.40
48806;DHT22;34625;47.176;27.548;2023-07-20T03:12:58;29.40;54.40
48806;DHT22;34625;47.176;27.548;2023-07-20T03:15:24;29.40;54.40
48806;DHT22;34625;47.176;27.548;2023-07-20T03:17:50;29.40;54.30
48806;DHT22;34625;47.176;27.548;2023-07-20T03:20:17;29.40;54.20
48806;DHT22;34625;47.176;27.548;2023-07-20T03:22:43;29.40;54.20
48806;DHT22;34625;47.176;27.548;2023-07-20T03:25:09;29.30;54.20
48806;DHT22;34625;47.176;27.548;2023-07-20T03:27:36;29.40;54.20
48806;DHT22;34625;47.176;27.548;2023-07-20T03:30:02;29.60;54.20
48806;DHT22;34625;47.176;27.548;2023-07-20T03:32:28;29.40;54.20
48806;DHT22;34625;47.176;27.548;2023-07-20T03:34:55;29.50;54.20
48806;DHT22;34625;47.176;27.548;2023-07-20T03:37:21;29.30;54.20
48806;DHT22;34625;47.176;27.548;2023-07-20T03:39:47;29.40;54.20
48806;DHT22;34625;47.176;27.548;2023-07-20T03:42:13;29.40;54.10
48806;DHT22;34625;47.176;27.548;2023-07-20T03:44:39;29.40;54.10
48806;DHT22;34625;47.176;27.548;2023-07-20T03:47:07;29.40;54.20
48806;DHT22;34625;47.176;27.548;2023-07-20T03:49:33;29.50;54.20
48806;DHT22;34625;47.176;27.548;2023-07-20T03:52:00;29.30;54.20
48806;DHT22;34625;47.176;27.548;2023-07-20T03:54:26;29.40;54.20
48806;DHT22;34625;47.176;27.548;2023-07-20T03:56:52;29.40;54.20
48806;DHT22;34625;47.176;27.548;2023-07-20T03:59:18;29.30;54.00
48806;DHT22;34625;47.176;27.548;2023-07-20T04:01:44;29.30;54.00
48806;DHT22;34625;47.176;27.548;2023-07-20T04:04:10;29.50;54.00
48806;DHT22;34625;47.176;27.548;2023-07-20T04:06:36;29.30;53.60
48806;DHT22;34625;47.176;27.548;2023-07-20T04:09:03;29.40;53.20
48806;DHT22;34625;47.176;27.548;2023-07-20T04:11:30;29.40;52.90
48806;DHT22;34625;47.176;27.548;2023-07-20T04:13:56;29.40;52.60
48806;DHT22;34625;47.176;27.548;2023-07-20T04:16:23;29.20;52.30
48806;DHT22;34625;47.176;27.548;2023-07-20T04:18:49;29.30;53.40
48806;DHT22;34625;47.176;27.548;2023-07-20T04:21:15;29.80;55.80
48806;DHT22;34625;47.176;27.548;2023-07-20T04:23:41;30.10;53.80
48806;DHT22;34625;47.176;27.548;2023-07-20T04:26:07;30.10;53.50
48806;DHT22;34625;47.176;27.548;2023-07-20T04:28:33;29.90;51.80
48806;DHT22;34625;47.176;27.548;2023-07-20T04:31:10;29.70;52.10
48806;DHT22;34625;47.176;27.548;2023-07-20T04:33:40;29.80;52.10
48806;DHT22;34625;47.176;27.548;2023-07-20T04:36:06;29.60;52.20
48806;DHT22;34625;47.176;27.548;2023-07-20T04:38:35;29.60;52.70
48806;DHT22;34625;47.176;27.548;2023-07-20T04:41:14;29.60;53.10
48806;DHT22;34625;47.176;27.548;2023-07-20T04:43:44;29.60;53.10
48806;DHT22;34625;47.176;27.548;2023-07-20T04:46:12;29.60;53.40
48806;DHT22;34625;47.176;27.548;2023-07-20T04:48:38;29.60;53.70
48806;DHT22;34625;47.176;27.548;2023-07-20T04:51:06;29.60;53.90
48806;DHT22;34625;47.176;27.548;2023-07-20T04:53:32;29.50;54.00
48806;DHT22;34625;47.176;27.548;2023-07-20T04:55:58;29.60;54.10
48806;DHT22;34625;47.176;27.548;2023-07-20T04:58:25;29.70;54.20
48806;DHT22;34625;47.176;27.548;2023-07-20T05:00:52;29.70;53.90
48806;DHT22;34625;47.176;27.548;2023-07-20T05:03:20;29.50;53.00
48806;DHT22;34625;47.176;27.548;2023-07-20T05:05:49;29.60;52.50
48806;DHT22;34625;47.176;27.548;2023-07-20T05:08:15;29.80;52.20
48806;DHT22;34625;47.176;27.548;2023-07-20T05:10:42;29.60;52.00
48806;DHT22;34625;47.176;27.548;2023-07-20T05:13:08;29.80;52.10
48806;DHT22;34625;47.176;27.548;2023-07-20T05:15:34;29.70;52.40
48806;DHT22;34625;47.176;27.548;2023-07-20T05:18:02;29.70;52.60
48806;DHT22;34625;47.176;27.548;2023-07-20T05:20:28;29.80;53.00
48806;DHT22;34625;47.176;27.548;2023-07-20T05:22:54;29.60;53.50
48806;DHT22;34625;47.176;27.548;2023-07-20T05:25:20;29.70;53.40
48806;DHT22;34625;47.176;27.548;2023-07-20T05:27:48;29.50;53.90
48806;DHT22;34625;47.176;27.548;2023-07-20T05:30:15;29.60;53.90
48806;DHT22;34625;47.176;27.548;2023-07-20T05:32:41;29.60;54.30
48806;DHT22;34625;47.176;27.548;2023-07-20T05:35:07;29.60;54.50
48806;DHT22;34625;47.176;27.548;2023-07-20T05:37:34;29.50;54.40
48806;DHT22;34625;47.176;27.548;2023-07-20T05:40:00;29.50;54.10
48806;DHT22;34625;47.176;27.548;2023-07-20T05:42:26;29.50;54.00
48806;DHT22;34625;47.176;27.548;2023-07-20T05:44:52;29.50;53.90
48806;DHT22;34625;47.176;27.548;2023-07-20T05:47:19;29.50;54.50
48806;DHT22;34625;47.176;27.548;2023-07-20T05:49:45;29.70;53.70
48806;DHT22;34625;47.176;27.548;2023-07-20T05:52:11;29.70;53.70
48806;DHT22;34625;47.176;27.548;2023-07-20T05:54:37;29.60;54.00
48806;DHT22;34625;47.176;27.548;2023-07-20T05:57:04;29.70;53.40
48806;DHT22;34625;47.176;27.548;2023-07-20T05:59:30;29.60;52.80
48806;DHT22;34625;47.176;27.548;2023-07-20T06:01:56;29.60;51.80
48806;DHT22;34625;47.176;27.548;2023-07-20T06:04:22;29.60;51.70
48806;DHT22;34625;47.176;27.548;2023-07-20T06:06:48;29.50;51.40
48806;DHT22;34625;47.176;27.548;2023-07-20T06:09:14;29.30;51.80
48806;DHT22;34625;47.176;27.548;2023-07-20T06:11:40;29.40;53.10
48806;DHT22;34625;47.176;27.548;2023-07-20T06:14:07;29.40;52.20
48806;DHT22;34625;47.176;27.548;2023-07-20T06:16:33;29.40;52.60
48806;DHT22;34625;47.176;27.548;2023-07-20T06:19:00;29.40;52.50
48806;DHT22;34625;47.176;27.548;2023-07-20T06:21:26;29.40;52.30
48806;DHT22;34625;47.176;27.548;2023-07-20T06:23:52;29.40;54.20
48806;DHT22;34625;47.176;27.548;2023-07-20T06:26:18;29.50;53.00
48806;DHT22;34625;47.176;27.548;2023-07-20T06:28:45;29.30;52.50
48806;DHT22;34625;47.176;27.548;2023-07-20T06:31:11;29.20;52.30
48806;DHT22;34625;47.176;27.548;2023-07-20T06:33:37;29.20;53.20
48806;DHT22;34625;47.176;27.548;2023-07-20T06:36:04;29.20;53.90
48806;DHT22;34625;47.176;27.548;2023-07-20T06:38:30;29.20;54.30
48806;DHT22;34625;47.176;27.548;2023-07-20T06:40:55;29.20;55.20
48806;DHT22;34625;47.176;27.548;2023-07-20T06:43:21;29.40;54.60
48806;DHT22;34625;47.176;27.548;2023-07-20T06:45:54;29.40;54.00
48806;DHT22;34625;47.176;27.548;2023-07-20T06:48:20;29.40;54.10
48806;DHT22;34625;47.176;27.548;2023-07-20T06:50:46;29.40;55.00
48806;DHT22;34625;47.176;27.548;2023-07-20T06:53:12;29.30;53.70
48806;DHT22;34625;47.176;27.548;2023-07-20T06:55:39;29.40;53.90
48806;DHT22;34625;47.176;27.548;2023-07-20T06:58:05;29.30;53.30
48806;DHT22;34625;47.176;27.548;2023-07-20T07:00:31;29.30;53.70
48806;DHT22;34625;47.176;27.548;2023-07-20T07:02:57;29.30;53.30
48806;DHT22;34625;47.176;27.548;2023-07-20T07:05:23;29.40;53.20
48806;DHT22;34625;47.176;27.548;2023-07-20T07:07:49;29.40;53.20
48806;DHT22;34625;47.176;27.548;2023-07-20T07:10:15;29.40;53.60
48806;DHT22;34625;47.176;27.548;2023-07-20T07:12:41;29.50;53.60
48806;DHT22;34625;47.176;27.548;2023-07-20T07:15:07;29.50;54.10
48806;DHT22;34625;47.176;27.548;2023-07-20T07:17:33;29.50;54.40
48806;DHT22;34625;47.176;27.548;2023-07-20T07:20:00;29.30;54.00
48806;DHT22;34625;47.176;27.548;2023-07-20T07:22:26;29.40;53.30
48806;DHT22;34625;47.176;27.548;2023-07-20T07:24:52;29.40;53.70
48806;DHT22;34625;47.176;27.548;2023-07-20T07:27:19;29.30;53.40
48806;DHT22;34625;47.176;27.548;2023-07-20T07:29:45;29.40;53.90
48806;DHT22;34625;47.176;27.548;2023-07-20T07:32:12;29.20;54.00
48806;DHT22;34625;47.176;27.548;2023-07-20T07:34:39;29.10;53.60
48806;DHT22;34625;47.176;27.548;2023-07-20T07:37:05;29.20;53.10
48806;DHT22;34625;47.176;27.548;2023-07-20T07:39:31;29.20;52.90
48806;DHT22;34625;47.176;27.548;2023-07-20T07:41:57;29.30;52.60
48806;DHT22;34625;47.176;27.548;2023-07-20T07:44:24;29.20;52.60
48806;DHT22;34625;47.176;27.548;2023-07-20T07:46:50;29.30;52.50
48806;DHT22;34625;47.176;27.548;2023-07-20T07:49:16;29.10;52.50
48806;DHT22;34625;47.176;27.548;2023-07-20T07:51:44;29.20;53.20
48806;DHT22;34625;47.176;27.548;2023-07-20T07:54:10;29.20;53.50
48806;DHT22;34625;47.176;27.548;2023-07-20T07:56:36;29.10;53.50
48806;DHT22;34625;47.176;27.548;2023-07-20T07:59:02;29.30;53.30
48806;DHT22;34625;47.176;27.548;2023-07-20T08:01:29;29.20;53.30
48806;DHT22;34625;47.176;27.548;2023-07-20T08:03:55;29.30;53.30
48806;DHT22;34625;47.176;27.548;2023-07-20T08:06:21;29.30;53.20
48806;DHT22;34625;47.176;27.548;2023-07-20T08:08:50;29.40;53.20
48806;DHT22;34625;47.176;27.548;2023-07-20T08:11:15;29.30;53.20
48806;DHT22;34625;47.176;27.548;2023-07-20T08:13:43;29.40;53.10
48806;DHT22;34625;47.176;27.548;2023-07-20T08:16:09;29.20;53.10
48806;DHT22;34625;47.176;27.548;2023-07-20T08:18:35;29.40;53.20
48806;DHT22;34625;47.176;27.548;2023-07-20T08:21:01;29.30;53.30
48806;DHT22;34625;47.176;27.548;2023-07-20T08:23:27;29.40;53.40
48806;DHT22;34625;47.176;27.548;2023-07-20T08:25:53;29.40;53.40
48806;DHT22;34625;47.176;27.548;2023-07-20T08:28:19;29.40;53.30
48806;DHT22;34625;47.176;27.548;2023-07-20T08:30:47;29.40;54.80
48806;DHT22;34625;47.176;27.548;2023-07-20T08:33:15;29.30;55.00
48806;DHT22;34625;47.176;27.548;2023-07-20T08:35:41;29.40;58.40
48806;DHT22;34625;47.176;27.548;2023-07-20T08:38:08;29.50;58.40
48806;DHT22;34625;47.176;27.548;2023-07-20T08:40:42;29.50;55.20
48806;DHT22;34625;47.176;27.548;2023-07-20T08:43:11;29.50;55.60
48806;DHT22;34625;47.176;27.548;2023-07-20T08:45:39;29.40;54.30
48806;DHT22;34625;47.176;27.548;2023-07-20T08:48:07;29.50;53.70
48806;DHT22;34625;47.176;27.548;2023-07-20T08:50:34;29.60;53.90
48806;DHT22;34625;47.176;27.548;2023-07-20T08:53:01;29.50;53.80
48806;DHT22;34625;47.176;27.548;2023-07-20T08:55:28;29.60;54.50
48806;DHT22;34625;47.176;27.548;2023-07-20T08:57:56;29.60;53.50
48806;DHT22;34625;47.176;27.548;2023-07-20T09:00:24;29.60;53.40
48806;DHT22;34625;47.176;27.548;2023-07-20T09:02:52;29.80;53.40
48806;DHT22;34625;47.176;27.548;2023-07-20T09:05:19;29.70;53.30
48806;DHT22;34625;47.176;27.548;2023-07-20T09:07:45;29.70;53.30
48806;DHT22;34625;47.176;27.548;2023-07-20T09:10:12;29.70;53.40
48806;DHT22;34625;47.176;27.548;2023-07-20T09:12:40;29.70;53.50
48806;DHT22;34625;47.176;27.548;2023-07-20T09:15:07;29.70;53.60
48806;DHT22;34625;47.176;27.548;2023-07-20T09:17:33;29.70;55.10
48806;DHT22;34625;47.176;27.548;2023-07-20T09:20:03;29.70;54.10
48806;DHT22;34625;47.176;27.548;2023-07-20T09:22:34;29.70;54.00
48806;DHT22;34625;47.176;27.548;2023-07-20T09:25:00;29.70;54.00
48806;DHT22;34625;47.176;27.548;2023-07-20T09:27:40;29.80;53.80
48806;DHT22;34625;47.176;27.548;2023-07-20T09:30:06;29.70;53.60
48806;DHT22;34625;47.176;27.548;2023-07-20T09:32:43;30.00;53.90
48806;DHT22;34625;47.176;27.548;2023-07-20T09:35:21;30.00;53.70
48806;DHT22;34625;47.176;27.548;2023-07-20T09:37:50;29.90;53.40
48806;DHT22;34625;47.176;27.548;2023-07-20T09:40:18;29.90;53.40
48806;DHT22;34625;47.176;27.548;2023-07-20T09:42:45;29.80;53.70
48806;DHT22;34625;47.176;27.548;2023-07-20T09:45:11;29.80;53.80
48806;DHT22;34625;47.176;27.548;2023-07-20T09:47:39;29.90;55.40
48806;DHT22;34625;47.176;27.548;2023-07-20T09:50:07;30.00;56.80
48806;DHT22;34625;47.176;27.548;2023-07-20T09:52:40;30.20;57.00
48806;DHT22;34625;47.176;27.548;2023-07-20T09:55:10;30.30;55.40
48806;DHT22;34625;47.176;27.548;2023-07-20T09:57:39;30.20;54.90
48806;DHT22;34625;47.176;27.548;2023-07-20T10:00:07;30.20;57.40
48806;DHT22;34625;47.176;27.548;2023-07-20T10:02:44;30.40;57.80
48806;DHT22;34625;47.176;27.548;2023-07-20T10:05:13;30.20;57.80
48806;DHT22;34625;47.176;27.548;2023-07-20T10:07:50;30.10;57.20
48806;DHT22;34625;47.176;27.548;2023-07-20T10:10:19;30.20;56.40
48806;DHT22;34625;47.176;27.548;2023-07-20T10:12:48;30.20;58.10
48806;DHT22;34625;47.176;27.548;2023-07-20T10:15:34;30.50;58.80
48806;DHT22;34625;47.176;27.548;2023-07-20T10:18:18;30.80;61.30
48806;DHT22;34625;47.176;27.548;2023-07-20T10:20:49;31.00;59.70
48806;DHT22;34625;47.176;27.548;2023-07-20T10:23:17;30.90;56.90
48806;DHT22;34625;47.176;27.548;2023-07-20T10:25:44;31.00;55.40
48806;DHT22;34625;47.176;27.548;2023-07-20T10:28:11;31.00;54.60
48806;DHT22;34625;47.176;27.548;2023-07-20T10:30:38;31.00;54.70
48806;DHT22;34625;47.176;27.548;2023-07-20T10:33:05;30.90;54.50
48806;DHT22;34625;47.176;27.548;2023-07-20T10:35:53;30.90;54.70
48806;DHT22;34625;47.176;27.548;2023-07-20T10:38:37;31.00;57.00
48806;DHT22;34625;47.176;27.548;2023-07-20T10:41:04;31.50;56.80
48806;DHT22;34625;47.176;27.548;2023-07-20T10:43:30;31.80;54.50
48806;DHT22;34625;47.176;27.548;2023-07-20T10:45:57;31.70;51.40
48806;DHT22;34625;47.176;27.548;2023-07-20T10:48:24;31.50;48.90
48806;DHT22;34625;47.176;27.548;2023-07-20T10:51:10;31.50;48.80
48806;DHT22;34625;47.176;27.548;2023-07-20T10:53:37;31.50;47.10
48806;DHT22;34625;47.176;27.548;2023-07-20T10:56:22;31.30;46.40
48806;DHT22;34625;47.176;27.548;2023-07-20T10:58:49;31.30;46.70
48806;DHT22;34625;47.176;27.548;2023-07-20T11:01:17;31.40;45.20
48806;DHT22;34625;47.176;27.548;2023-07-20T11:03:48;31.30;45.10
48806;DHT22;34625;47.176;27.548;2023-07-20T11:09:13;31.30;44.10
48806;DHT22;34625;47.176;27.548;2023-07-20T11:11:47;31.40;42.90
48806;DHT22;34625;47.176;27.548;2023-07-20T11:14:23;31.20;42.80
48806;DHT22;34625;47.176;27.548;2023-07-20T11:16:51;31.10;42.60
48806;DHT22;34625;47.176;27.548;2023-07-20T11:19:22;31.20;42.40
48806;DHT22;34625;47.176;27.548;2023-07-20T11:21:53;31.10;42.20
48806;DHT22;34625;47.176;27.548;2023-07-20T11:24:19;31.10;40.60
48806;DHT22;34625;47.176;27.548;2023-07-20T11:26:50;31.10;40.50
48806;DHT22;34625;47.176;27.548;2023-07-20T11:29:17;31.00;39.50
48806;DHT22;34625;47.176;27.548;2023-07-20T11:31:44;31.00;39.50
48806;DHT22;34625;47.176;27.548;2023-07-20T11:34:16;30.70;39.20
48806;DHT22;34625;47.176;27.548;2023-07-20T11:36:44;30.80;38.80
48806;DHT22;34625;47.176;27.548;2023-07-20T11:39:15;30.70;38.80
48806;DHT22;34625;47.176;27.548;2023-07-20T11:41:55;30.60;38.80
48806;DHT22;34625;47.176;27.548;2023-07-20T11:44:28;30.60;38.70
48806;DHT22;34625;47.176;27.548;2023-07-20T11:47:05;30.50;38.80
48806;DHT22;34625;47.176;27.548;2023-07-20T11:49:39;30.40;38.20
48806;DHT22;34625;47.176;27.548;2023-07-20T11:52:08;30.30;38.80
48806;DHT22;34625;47.176;27.548;2023-07-20T11:54:35;30.40;38.70
48806;DHT22;34625;47.176;27.548;2023-07-20T11:57:02;30.40;38.50
48806;DHT22;34625;47.176;27.548;2023-07-20T11:59:28;30.30;38.90
48806;DHT22;34625;47.176;27.548;2023-07-20T12:01:54;30.40;38.40
48806;DHT22;34625;47.176;27.548;2023-07-20T12:04:22;30.30;38.30
48806;DHT22;34625;47.176;27.548;2023-07-20T12:06:49;30.20;38.50
48806;DHT22;34625;47.176;27.548;2023-07-20T12:09:16;30.30;38.90
48806;DHT22;34625;47.176;27.548;2023-07-20T12:11:44;30.30;39.10
48806;DHT22;34625;47.176;27.548;2023-07-20T12:14:11;30.40;39.40
48806;DHT22;34625;47.176;27.548;2023-07-20T12:16:37;30.20;40.00
48806;DHT22;34625;47.176;27.548;2023-07-20T12:19:09;30.30;40.30
48806;DHT22;34625;47.176;27.548;2023-07-20T12:21:37;30.20;41.90
48806;DHT22;34625;47.176;27.548;2023-07-20T12:24:04;30.40;42.90
48806;DHT22;34625;47.176;27.548;2023-07-20T12:26:30;30.40;42.80
48806;DHT22;34625;47.176;27.548;2023-07-20T12:28:57;30.10;43.20
48806;DHT22;34625;47.176;27.548;2023-07-20T12:31:24;30.10;43.00
48806;DHT22;34625;47.176;27.548;2023-07-20T12:33:51;30.10;43.20
48806;DHT22;34625;47.176;27.548;2023-07-20T12:36:18;30.10;43.50
48806;DHT22;34625;47.176;27.548;2023-07-20T12:38:44;30.10;43.60
48806;DHT22;34625;47.176;27.548;2023-07-20T12:41:11;30.20;43.90
48806;DHT22;34625;47.176;27.548;2023-07-20T12:43:41;30.20;44.10
48806;DHT22;34625;47.176;27.548;2023-07-20T12:46:08;30.10;44.30
48806;DHT22;34625;47.176;27.548;2023-07-20T12:48:35;30.10;44.50
48806;DHT22;34625;47.176;27.548;2023-07-20T12:51:03;30.20;44.70
48806;DHT22;34625;47.176;27.548;2023-07-20T12:53:31;30.10;44.60
48806;DHT22;34625;47.176;27.548;2023-07-20T12:55:58;30.00;44.80
48806;DHT22;34625;47.176;27.548;2023-07-20T12:58:25;30.00;45.10
48806;DHT22;34625;47.176;27.548;2023-07-20T13:00:51;30.00;45.30
48806;DHT22;34625;47.176;27.548;2023-07-20T13:03:17;30.00;45.40
48806;DHT22;34625;47.176;27.548;2023-07-20T13:05:45;30.00;45.50
48806;DHT22;34625;47.176;27.548;2023-07-20T13:08:12;29.90;45.00
48806;DHT22;34625;47.176;27.548;2023-07-20T13:10:38;29.90;45.20
48806;DHT22;34625;47.176;27.548;2023-07-20T13:13:05;29.80;45.20
48806;DHT22;34625;47.176;27.548;2023-07-20T13:15:32;29.80;45.30
48806;DHT22;34625;47.176;27.548;2023-07-20T13:17:59;29.70;45.50
48806;DHT22;34625;47.176;27.548;2023-07-20T13:20:26;29.70;45.60
48806;DHT22;34625;47.176;27.548;2023-07-20T13:22:52;29.70;45.70
48806;DHT22;34625;47.176;27.548;2023-07-20T13:25:18;29.70;45.90
48806;DHT22;34625;47.176;27.548;2023-07-20T13:27:47;29.70;46.00
48806;DHT22;34625;47.176;27.548;2023-07-20T13:30:13;29.70;46.10
48806;DHT22;34625;47.176;27.548;2023-07-20T13:32:45;29.60;46.30
48806;DHT22;34625;47.176;27.548;2023-07-20T13:35:12;29.50;46.40
48806;DHT22;34625;47.176;27.548;2023-07-20T13:37:38;29.60;46.50
48806;DHT22;34625;47.176;27.548;2023-07-20T13:40:05;29.60;46.70
48806;DHT22;34625;47.176;27.548;2023-07-20T13:42:32;29.60;46.80
48806;DHT22;34625;47.176;27.548;2023-07-20T13:44:58;29.50;47.00
48806;DHT22;34625;47.176;27.548;2023-07-20T13:47:24;29.60;47.00
48806;DHT22;34625;47.176;27.548;2023-07-20T13:49:50;29.60;47.00
48806;DHT22;34625;47.176;27.548;2023-07-20T13:52:16;29.60;47.10
48806;DHT22;34625;47.176;27.548;2023-07-20T13:54:42;29.60;47.10
48806;DHT22;34625;47.176;27.548;2023-07-20T13:57:08;29.70;47.20
48806;DHT22;34625;47.176;27.548;2023-07-20T13:59:34;29.60;47.30
48806;DHT22;34625;47.176;27.548;2023-07-20T14:02:00;29.70;47.50
48806;DHT22;34625;47.176;27.548;2023-07-20T14:04:26;29.60;47.50
48806;DHT22;34625;47.176;27.548;2023-07-20T14:06:52;29.60;47.70
48806;DHT22;34625;47.176;27.548;2023-07-20T14:09:18;29.60;47.80
48806;DHT22;34625;47.176;27.548;2023-07-20T14:11:44;29.70;47.90
48806;DHT22;34625;47.176;27.548;2023-07-20T14:14:10;29.60;48.00
48806;DHT22;34625;47.176;27.548;2023-07-20T14:16:36;29.60;48.10
48806;DHT22;34625;47.176;27.548;2023-07-20T14:19:02;29.60;48.10
48806;DHT22;34625;47.176;27.548;2023-07-20T14:21:30;29.60;48.20
48806;DHT22;34625;47.176;27.548;2023-07-20T14:23:56;29.80;48.30
48806;DHT22;34625;47.176;27.548;2023-07-20T14:26:23;29.60;48.40
48806;DHT22;34625;47.176;27.548;2023-07-20T14:28:50;29.70;48.50
48806;DHT22;34625;47.176;27.548;2023-07-20T14:31:16;29.70;48.60
48806;DHT22;34625;47.176;27.548;2023-07-20T14:33:42;29.80;48.70
48806;DHT22;34625;47.176;27.548;2023-07-20T14:36:08;29.80;48.80
48806;DHT22;34625;47.176;27.548;2023-07-20T14:38:34;29.70;48.90
48806;DHT22;34625;47.176;27.548;2023-07-20T14:41:01;29.90;48.90
48806;DHT22;34625;47.176;27.548;2023-07-20T14:43:27;29.70;48.90
48806;DHT22;34625;47.176;27.548;2023-07-20T14:45:54;29.80;49.00
48806;DHT22;34625;47.176;27.548;2023-07-20T14:48:20;29.90;49.10
48806;DHT22;34625;47.176;27.548;2023-07-20T14:50:46;29.70;49.10
48806;DHT22;34625;47.176;27.548;2023-07-20T14:53:13;29.90;49.20
48806;DHT22;34625;47.176;27.548;2023-07-20T14:55:39;29.70;49.30
48806;DHT22;34625;47.176;27.548;2023-07-20T14:58:05;29.60;49.40
48806;DHT22;34625;47.176;27.548;2023-07-20T15:00:31;29.60;49.40
48806;DHT22;34625;47.176;27.548;2023-07-20T15:02:57;29.60;49.20
48806;DHT22;34625;47.176;27.548;2023-07-20T15:05:24;29.80;49.30
48806;DHT22;34625;47.176;27.548;2023-07-20T15:07:52;29.70;49.40
48806;DHT22;34625;47.176;27.548;2023-07-20T15:10:19;29.70;49.40
48806;DHT22;34625;47.176;27.548;2023-07-20T15:12:45;29.70;49.60
48806;DHT22;34625;47.176;27.548;2023-07-20T15:15:13;29.80;49.60
48806;DHT22;34625;47.176;27.548;2023-07-20T15:17:41;29.70;49.70
48806;DHT22;34625;47.176;27.548;2023-07-20T15:20:12;29.70;50.00
48806;DHT22;34625;47.176;27.548;2023-07-20T15:22:38;29.70;49.80
48806;DHT22;34625;47.176;27.548;2023-07-20T15:25:06;29.70;49.90
48806;DHT22;34625;47.176;27.548;2023-07-20T15:27:32;29.80;50.00
48806;DHT22;34625;47.176;27.548;2023-07-20T15:29:59;29.90;50.60
48806;DHT22;34625;47.176;27.548;2023-07-20T15:32:25;29.70;51.40
48806;DHT22;34625;47.176;27.548;2023-07-20T15:34:52;29.70;52.00